sensor_id;sensor_type;location;lat;lon;timestamp;P1;durP1;ratioP1;P2;durP2;ratioP2
2404;SDS011;1213;43.206;27.922;2022-11-11T00:01:56;4.17;;;3.50;;
2404;SDS011;1213;43.206;27.922;2022-11-11T00:04:23;7.80;;;5.07;;
2404;SDS011;1213;43.206;27.922;2022-11-11T00:06:48;8.07;;;4.80;;
2404;SDS011;1213;43.206;27.922;2022-11-11T00:09:13;5.90;;;4.07;;
2404;SDS011;1213;43.206;27.922;2022-11-11T00:11:39;16.47;;;6.27;;
2404;SDS011;1213;43.206;27.922;2022-11-11T00:14:04;7.13;;;3.50;;
2404;SDS011;1213;43.206;27.922;2022-11-11T00:16:29;4.77;;;4.30;;
2404;SDS011;1213;43.206;27.922;2022-11-11T00:19:14;8.77;;;4.20;;
2404;SDS011;1213;43.206;27.922;2022-11-11T00:21:58;4.60;;;4.20;;
2404;SDS011;1213;43.206;27.922;2022-11-11T00:24:42;6.43;;;5.80;;
2404;SDS011;1213;43.206;27.922;2022-11-11T00:27:26;6.20;;;4.37;;
2404;SDS011;1213;43.206;27.922;2022-11-11T00:29:51;7.47;;;6.73;;
2404;SDS011;1213;43.206;27.922;2022-11-11T00:32:16;4.67;;;4.23;;
2404;SDS011;1213;43.206;27.922;2022-11-11T00:34:51;5.77;;;4.30;;
2404;SDS011;1213;43.206;27.922;2022-11-11T00:37:35;10.53;;;5.63;;
2404;SDS011;1213;43.206;27.922;2022-11-11T00:40:02;12.87;;;8.47;;
2404;SDS011;1213;43.206;27.922;2022-11-11T00:42:28;7.80;;;6.73;;
2404;SDS011;1213;43.206;27.922;2022-11-11T00:44:53;10.53;;;8.10;;
2404;SDS011;1213;43.206;27.922;2022-11-11T00:47:18;6.87;;;5.90;;
2404;SDS011;1213;43.206;27.922;2022-11-11T00:50:06;12.60;;;8.17;;
2404;SDS011;1213;43.206;27.922;2022-11-11T00:52:50;2.93;;;2.73;;
2404;SDS011;1213;43.206;27.922;2022-11-11T00:55:16;6.80;;;6.10;;
2404;SDS011;1213;43.206;27.922;2022-11-11T00:57:41;8.43;;;6.30;;
2404;SDS011;1213;43.206;27.922;2022-11-11T01:00:06;10.33;;;7.30;;
2404;SDS011;1213;43.206;27.922;2022-11-11T01:02:31;9.57;;;5.23;;
2404;SDS011;1213;43.206;27.922;2022-11-11T01:04:57;7.87;;;6.23;;
2404;SDS011;1213;43.206;27.922;2022-11-11T01:07:22;7.23;;;6.53;;
2404;SDS011;1213;43.206;27.922;2022-11-11T01:09:47;9.20;;;7.20;;
2404;SDS011;1213;43.206;27.922;2022-11-11T01:12:13;3.73;;;3.33;;
2404;SDS011;1213;43.206;27.922;2022-11-11T01:14:39;6.37;;;5.50;;
2404;SDS011;1213;43.206;27.922;2022-11-11T01:17:04;14.80;;;5.70;;
2404;SDS011;1213;43.206;27.922;2022-11-11T01:19:30;9.43;;;5.87;;
2404;SDS011;1213;43.206;27.922;2022-11-11T01:21:55;7.37;;;5.40;;
2404;SDS011;1213;43.206;27.922;2022-11-11T01:24:20;7.27;;;4.30;;
2404;SDS011;1213;43.206;27.922;2022-11-11T01:26:46;8.83;;;4.57;;
2404;SDS011;1213;43.206;27.922;2022-11-11T01:29:11;7.23;;;3.80;;
2404;SDS011;1213;43.206;27.922;2022-11-11T01:31:36;11.47;;;6.97;;
2404;SDS011;1213;43.206;27.922;2022-11-11T01:34:02;9.60;;;7.70;;
2404;SDS011;1213;43.206;27.922;2022-11-11T01:36:27;12.80;;;8.40;;
2404;SDS011;1213;43.206;27.922;2022-11-11T01:38:53;23.30;;;8.87;;
2404;SDS011;1213;43.206;27.922;2022-11-11T01:41:20;12.77;;;8.57;;
2404;SDS011;1213;43.206;27.922;2022-11-11T01:43:59;10.80;;;7.00;;
2404;SDS011;1213;43.206;27.922;2022-11-11T01:46:30;18.80;;;11.00;;
2404;SDS011;1213;43.206;27.922;2022-11-11T01:48:57;16.10;;;9.00;;
2404;SDS011;1213;43.206;27.922;2022-11-11T01:51:46;25.10;;;14.57;;
2404;SDS011;1213;43.206;27.922;2022-11-11T01:54:20;25.50;;;13.77;;
2404;SDS011;1213;43.206;27.922;2022-11-11T01:56:47;20.20;;;13.70;;
2404;SDS011;1213;43.206;27.922;2022-11-11T01:59:13;31.17;;;19.67;;
2404;SDS011;1213;43.206;27.922;2022-11-11T02:01:41;39.70;;;10.00;;
2404;SDS011;1213;43.206;27.922;2022-11-11T02:04:07;31.03;;;18.00;;
2404;SDS011;1213;43.206;27.922;2022-11-11T02:06:52;28.63;;;15.77;;
2404;SDS011;1213;43.206;27.922;2022-11-11T02:09:18;23.83;;;14.17;;
2404;SDS011;1213;43.206;27.922;2022-11-11T02:11:43;20.53;;;12.60;;
2404;SDS011;1213;43.206;27.922;2022-11-11T02:14:27;9.60;;;7.47;;
2404;SDS011;1213;43.206;27.922;2022-11-11T02:17:07;19.80;;;11.37;;
2404;SDS011;1213;43.206;27.922;2022-11-11T02:22:12;18.53;;;11.20;;
2404;SDS011;1213;43.206;27.922;2022-11-11T02:24:38;21.67;;;12.90;;
2404;SDS011;1213;43.206;27.922;2022-11-11T02:27:05;25.70;;;14.30;;
2404;SDS011;1213;43.206;27.922;2022-11-11T02:29:32;16.30;;;10.20;;
2404;SDS011;1213;43.206;27.922;2022-11-11T02:31:59;17.27;;;12.90;;
2404;SDS011;1213;43.206;27.922;2022-11-11T02:34:28;25.60;;;15.57;;
2404;SDS011;1213;43.206;27.922;2022-11-11T02:36:53;29.00;;;17.07;;
2404;SDS011;1213;43.206;27.922;2022-11-11T02:39:18;25.00;;;14.60;;
2404;SDS011;1213;43.206;27.922;2022-11-11T02:41:46;12.90;;;11.03;;
2404;SDS011;1213;43.206;27.922;2022-11-11T02:44:21;25.60;;;14.27;;
2404;SDS011;1213;43.206;27.922;2022-11-11T02:46:46;33.10;;;15.20;;
2404;SDS011;1213;43.206;27.922;2022-11-11T02:49:11;35.33;;;17.47;;
2404;SDS011;1213;43.206;27.922;2022-11-11T02:51:36;21.07;;;13.87;;
2404;SDS011;1213;43.206;27.922;2022-11-11T02:54:02;35.87;;;19.13;;
2404;SDS011;1213;43.206;27.922;2022-11-11T02:56:27;19.90;;;12.63;;
2404;SDS011;1213;43.206;27.922;2022-11-11T02:59:11;40.47;;;24.23;;
2404;SDS011;1213;43.206;27.922;2022-11-11T03:01:36;37.00;;;21.73;;
2404;SDS011;1213;43.206;27.922;2022-11-11T03:04:01;32.37;;;20.17;;
2404;SDS011;1213;43.206;27.922;2022-11-11T03:06:27;12.43;;;8.40;;
2404;SDS011;1213;43.206;27.922;2022-11-11T03:08:52;22.17;;;14.27;;
2404;SDS011;1213;43.206;27.922;2022-11-11T03:11:17;21.87;;;16.43;;
2404;SDS011;1213;43.206;27.922;2022-11-11T03:14:00;17.13;;;12.03;;
2404;SDS011;1213;43.206;27.922;2022-11-11T03:16:25;10.03;;;8.43;;
2404;SDS011;1213;43.206;27.922;2022-11-11T03:19:09;21.73;;;14.00;;
2404;SDS011;1213;43.206;27.922;2022-11-11T03:21:35;16.50;;;11.27;;
2404;SDS011;1213;43.206;27.922;2022-11-11T03:24:00;6.47;;;5.97;;
2404;SDS011;1213;43.206;27.922;2022-11-11T03:26:26;25.93;;;14.17;;
2404;SDS011;1213;43.206;27.922;2022-11-11T03:28:51;30.43;;;16.50;;
2404;SDS011;1213;43.206;27.922;2022-11-11T03:31:16;14.83;;;12.10;;
2404;SDS011;1213;43.206;27.922;2022-11-11T03:33:42;12.07;;;9.70;;
2404;SDS011;1213;43.206;27.922;2022-11-11T03:36:07;17.40;;;11.90;;
2404;SDS011;1213;43.206;27.922;2022-11-11T03:38:33;9.37;;;8.57;;
2404;SDS011;1213;43.206;27.922;2022-11-11T03:40:58;22.13;;;14.07;;
2404;SDS011;1213;43.206;27.922;2022-11-11T03:43:24;27.60;;;13.17;;
2404;SDS011;1213;43.206;27.922;2022-11-11T03:45:54;12.40;;;9.03;;
2404;SDS011;1213;43.206;27.922;2022-11-11T03:48:20;19.73;;;13.27;;
2404;SDS011;1213;43.206;27.922;2022-11-11T03:50:45;22.77;;;13.63;;
2404;SDS011;1213;43.206;27.922;2022-11-11T03:53:11;29.07;;;15.90;;
2404;SDS011;1213;43.206;27.922;2022-11-11T03:55:38;27.13;;;14.87;;
2404;SDS011;1213;43.206;27.922;2022-11-11T03:58:04;67.53;;;16.23;;
2404;SDS011;1213;43.206;27.922;2022-11-11T04:00:29;14.87;;;10.53;;
2404;SDS011;1213;43.206;27.922;2022-11-11T04:03:04;23.57;;;16.13;;
2404;SDS011;1213;43.206;27.922;2022-11-11T04:05:49;31.03;;;15.47;;
2404;SDS011;1213;43.206;27.922;2022-11-11T04:08:32;35.97;;;14.90;;
2404;SDS011;1213;43.206;27.922;2022-11-11T04:11:35;14.90;;;12.37;;
2404;SDS011;1213;43.206;27.922;2022-11-11T04:14:02;29.67;;;14.87;;
2404;SDS011;1213;43.206;27.922;2022-11-11T04:16:47;24.43;;;15.20;;
2404;SDS011;1213;43.206;27.922;2022-11-11T04:19:12;26.00;;;14.40;;
2404;SDS011;1213;43.206;27.922;2022-11-11T04:21:56;17.73;;;12.10;;
2404;SDS011;1213;43.206;27.922;2022-11-11T04:24:22;22.20;;;14.23;;
2404;SDS011;1213;43.206;27.922;2022-11-11T04:27:10;11.13;;;7.20;;
2404;SDS011;1213;43.206;27.922;2022-11-11T04:29:36;26.50;;;16.03;;
2404;SDS011;1213;43.206;27.922;2022-11-11T04:32:05;14.93;;;9.03;;
2404;SDS011;1213;43.206;27.922;2022-11-11T04:34:51;19.70;;;13.10;;
2404;SDS011;1213;43.206;27.922;2022-11-11T04:37:16;21.90;;;14.97;;
2404;SDS011;1213;43.206;27.922;2022-11-11T04:39:42;30.47;;;9.60;;
2404;SDS011;1213;43.206;27.922;2022-11-11T04:42:26;20.73;;;14.00;;
2404;SDS011;1213;43.206;27.922;2022-11-11T04:44:51;21.20;;;11.70;;
2404;SDS011;1213;43.206;27.922;2022-11-11T04:47:35;17.70;;;9.90;;
2404;SDS011;1213;43.206;27.922;2022-11-11T04:50:01;20.33;;;14.67;;
2404;SDS011;1213;43.206;27.922;2022-11-11T04:52:26;16.67;;;12.20;;
2404;SDS011;1213;43.206;27.922;2022-11-11T04:54:52;19.43;;;13.63;;
2404;SDS011;1213;43.206;27.922;2022-11-11T04:57:43;26.70;;;11.60;;
2404;SDS011;1213;43.206;27.922;2022-11-11T05:00:10;14.73;;;11.40;;
2404;SDS011;1213;43.206;27.922;2022-11-11T05:02:36;22.40;;;12.60;;
2404;SDS011;1213;43.206;27.922;2022-11-11T05:05:21;18.57;;;11.83;;
2404;SDS011;1213;43.206;27.922;2022-11-11T05:07:46;9.50;;;7.03;;
2404;SDS011;1213;43.206;27.922;2022-11-11T05:10:30;11.60;;;7.10;;
2404;SDS011;1213;43.206;27.922;2022-11-11T05:12:55;18.90;;;11.93;;
2404;SDS011;1213;43.206;27.922;2022-11-11T05:15:41;27.83;;;10.37;;
2404;SDS011;1213;43.206;27.922;2022-11-11T05:18:25;6.20;;;5.57;;
2404;SDS011;1213;43.206;27.922;2022-11-11T05:21:11;13.60;;;8.97;;
2404;SDS011;1213;43.206;27.922;2022-11-11T05:23:46;24.13;;;12.60;;
2404;SDS011;1213;43.206;27.922;2022-11-11T05:26:30;25.53;;;14.57;;
2404;SDS011;1213;43.206;27.922;2022-11-11T05:28:55;27.47;;;17.33;;
2404;SDS011;1213;43.206;27.922;2022-11-11T05:31:21;13.90;;;10.97;;
2404;SDS011;1213;43.206;27.922;2022-11-11T05:33:46;23.57;;;14.80;;
2404;SDS011;1213;43.206;27.922;2022-11-11T05:36:11;4.73;;;4.33;;
2404;SDS011;1213;43.206;27.922;2022-11-11T05:38:37;10.67;;;9.63;;
2404;SDS011;1213;43.206;27.922;2022-11-11T05:41:02;33.50;;;18.47;;
2404;SDS011;1213;43.206;27.922;2022-11-11T05:43:27;17.63;;;11.27;;
2404;SDS011;1213;43.206;27.922;2022-11-11T05:45:52;30.70;;;15.23;;
2404;SDS011;1213;43.206;27.922;2022-11-11T05:48:18;26.47;;;18.43;;
2404;SDS011;1213;43.206;27.922;2022-11-11T05:50:43;35.20;;;19.50;;
2404;SDS011;1213;43.206;27.922;2022-11-11T05:53:08;48.87;;;18.67;;
2404;SDS011;1213;43.206;27.922;2022-11-11T05:55:33;18.93;;;12.57;;
2404;SDS011;1213;43.206;27.922;2022-11-11T05:57:59;23.70;;;14.90;;
2404;SDS011;1213;43.206;27.922;2022-11-11T06:00:24;28.47;;;14.53;;
2404;SDS011;1213;43.206;27.922;2022-11-11T06:02:49;24.30;;;15.70;;
2404;SDS011;1213;43.206;27.922;2022-11-11T06:05:14;15.20;;;9.83;;
2404;SDS011;1213;43.206;27.922;2022-11-11T06:07:40;26.33;;;14.40;;
2404;SDS011;1213;43.206;27.922;2022-11-11T06:10:05;22.33;;;14.53;;
2404;SDS011;1213;43.206;27.922;2022-11-11T06:12:49;16.80;;;12.77;;
2404;SDS011;1213;43.206;27.922;2022-11-11T06:15:28;20.13;;;13.10;;
2404;SDS011;1213;43.206;27.922;2022-11-11T06:17:54;31.07;;;12.87;;
2404;SDS011;1213;43.206;27.922;2022-11-11T06:20:19;18.40;;;10.87;;
2404;SDS011;1213;43.206;27.922;2022-11-11T06:22:44;24.87;;;14.07;;
2404;SDS011;1213;43.206;27.922;2022-11-11T06:25:22;11.53;;;9.33;;
2404;SDS011;1213;43.206;27.922;2022-11-11T06:28:06;23.50;;;17.30;;
2404;SDS011;1213;43.206;27.922;2022-11-11T06:30:31;28.50;;;18.00;;
2404;SDS011;1213;43.206;27.922;2022-11-11T06:32:57;15.07;;;11.57;;
2404;SDS011;1213;43.206;27.922;2022-11-11T06:35:22;26.80;;;14.87;;
2404;SDS011;1213;43.206;27.922;2022-11-11T06:37:47;29.23;;;15.50;;
2404;SDS011;1213;43.206;27.922;2022-11-11T06:40:12;39.53;;;19.77;;
2404;SDS011;1213;43.206;27.922;2022-11-11T06:42:38;26.07;;;15.70;;
2404;SDS011;1213;43.206;27.922;2022-11-11T06:45:03;27.03;;;16.43;;
2404;SDS011;1213;43.206;27.922;2022-11-11T06:47:28;20.23;;;13.37;;
2404;SDS011;1213;43.206;27.922;2022-11-11T06:49:54;40.33;;;21.37;;
2404;SDS011;1213;43.206;27.922;2022-11-11T06:52:19;27.37;;;16.03;;
2404;SDS011;1213;43.206;27.922;2022-11-11T06:54:44;27.67;;;18.90;;
2404;SDS011;1213;43.206;27.922;2022-11-11T06:57:09;14.07;;;12.60;;
2404;SDS011;1213;43.206;27.922;2022-11-11T06:59:35;22.53;;;15.50;;
2404;SDS011;1213;43.206;27.922;2022-11-11T07:02:00;26.10;;;18.67;;
2404;SDS011;1213;43.206;27.922;2022-11-11T07:04:26;24.77;;;17.63;;
2404;SDS011;1213;43.206;27.922;2022-11-11T07:06:52;29.10;;;19.10;;
2404;SDS011;1213;43.206;27.922;2022-11-11T07:09:17;26.90;;;19.67;;
2404;SDS011;1213;43.206;27.922;2022-11-11T07:11:42;33.00;;;19.00;;
2404;SDS011;1213;43.206;27.922;2022-11-11T07:14:07;23.00;;;15.80;;
2404;SDS011;1213;43.206;27.922;2022-11-11T07:16:32;20.73;;;8.80;;
2404;SDS011;1213;43.206;27.922;2022-11-11T07:18:58;23.77;;;13.67;;
2404;SDS011;1213;43.206;27.922;2022-11-11T07:21:23;15.97;;;11.73;;
2404;SDS011;1213;43.206;27.922;2022-11-11T07:23:48;23.43;;;14.30;;
2404;SDS011;1213;43.206;27.922;2022-11-11T07:26:14;33.77;;;16.50;;
2404;SDS011;1213;43.206;27.922;2022-11-11T07:28:39;30.57;;;15.07;;
2404;SDS011;1213;43.206;27.922;2022-11-11T07:31:04;25.37;;;15.97;;
2404;SDS011;1213;43.206;27.922;2022-11-11T07:33:29;32.13;;;18.03;;
2404;SDS011;1213;43.206;27.922;2022-11-11T07:35:55;39.73;;;23.80;;
2404;SDS011;1213;43.206;27.922;2022-11-11T07:38:20;20.87;;;13.10;;
2404;SDS011;1213;43.206;27.922;2022-11-11T07:40:45;29.70;;;16.37;;
2404;SDS011;1213;43.206;27.922;2022-11-11T07:43:10;26.77;;;13.60;;
2404;SDS011;1213;43.206;27.922;2022-11-11T07:45:36;25.70;;;14.23;;
2404;SDS011;1213;43.206;27.922;2022-11-11T07:48:01;26.90;;;15.50;;
2404;SDS011;1213;43.206;27.922;2022-11-11T07:50:26;18.97;;;12.67;;
2404;SDS011;1213;43.206;27.922;2022-11-11T07:52:52;20.90;;;14.50;;
2404;SDS011;1213;43.206;27.922;2022-11-11T07:55:18;16.90;;;13.00;;
2404;SDS011;1213;43.206;27.922;2022-11-11T07:57:43;16.03;;;10.90;;
2404;SDS011;1213;43.206;27.922;2022-11-11T08:00:09;18.20;;;11.50;;
2404;SDS011;1213;43.206;27.922;2022-11-11T08:02:34;24.33;;;11.73;;
2404;SDS011;1213;43.206;27.922;2022-11-11T08:04:59;20.30;;;13.70;;
2404;SDS011;1213;43.206;27.922;2022-11-11T08:07:25;23.37;;;14.53;;
2404;SDS011;1213;43.206;27.922;2022-11-11T08:09:50;29.00;;;17.53;;
2404;SDS011;1213;43.206;27.922;2022-11-11T08:12:15;21.93;;;13.23;;
2404;SDS011;1213;43.206;27.922;2022-11-11T08:14:59;21.00;;;13.13;;
2404;SDS011;1213;43.206;27.922;2022-11-11T08:17:25;28.83;;;18.30;;
2404;SDS011;1213;43.206;27.922;2022-11-11T08:19:50;29.07;;;15.90;;
2404;SDS011;1213;43.206;27.922;2022-11-11T08:22:15;18.47;;;11.83;;
2404;SDS011;1213;43.206;27.922;2022-11-11T08:24:41;27.00;;;15.63;;
2404;SDS011;1213;43.206;27.922;2022-11-11T08:27:09;27.93;;;16.47;;
2404;SDS011;1213;43.206;27.922;2022-11-11T08:29:35;20.97;;;13.07;;
2404;SDS011;1213;43.206;27.922;2022-11-11T08:32:00;25.53;;;13.87;;
2404;SDS011;1213;43.206;27.922;2022-11-11T08:34:25;27.27;;;15.93;;
2404;SDS011;1213;43.206;27.922;2022-11-11T08:36:51;25.80;;;16.30;;
2404;SDS011;1213;43.206;27.922;2022-11-11T08:39:16;30.87;;;17.07;;
2404;SDS011;1213;43.206;27.922;2022-11-11T08:41:41;20.20;;;14.50;;
2404;SDS011;1213;43.206;27.922;2022-11-11T08:44:08;25.20;;;15.03;;
2404;SDS011;1213;43.206;27.922;2022-11-11T08:46:33;19.40;;;10.73;;
2404;SDS011;1213;43.206;27.922;2022-11-11T08:48:58;27.97;;;15.90;;
2404;SDS011;1213;43.206;27.922;2022-11-11T08:51:23;31.30;;;17.00;;
2404;SDS011;1213;43.206;27.922;2022-11-11T08:53:49;27.50;;;15.93;;
2404;SDS011;1213;43.206;27.922;2022-11-11T08:56:14;28.70;;;12.63;;
2404;SDS011;1213;43.206;27.922;2022-11-11T08:58:39;30.40;;;14.73;;
2404;SDS011;1213;43.206;27.922;2022-11-11T09:01:09;32.03;;;13.47;;
2404;SDS011;1213;43.206;27.922;2022-11-11T09:03:34;23.17;;;13.07;;
2404;SDS011;1213;43.206;27.922;2022-11-11T09:05:59;15.93;;;10.23;;
2404;SDS011;1213;43.206;27.922;2022-11-11T09:08:24;29.07;;;16.60;;
2404;SDS011;1213;43.206;27.922;2022-11-11T09:10:50;27.17;;;15.10;;
2404;SDS011;1213;43.206;27.922;2022-11-11T09:13:15;25.67;;;14.20;;
2404;SDS011;1213;43.206;27.922;2022-11-11T09:15:40;24.27;;;14.47;;
2404;SDS011;1213;43.206;27.922;2022-11-11T09:18:05;34.43;;;14.47;;
2404;SDS011;1213;43.206;27.922;2022-11-11T09:20:33;23.63;;;14.17;;
2404;SDS011;1213;43.206;27.922;2022-11-11T09:22:58;30.40;;;16.27;;
2404;SDS011;1213;43.206;27.922;2022-11-11T09:25:23;27.97;;;17.60;;
2404;SDS011;1213;43.206;27.922;2022-11-11T09:27:59;34.90;;;19.80;;
2404;SDS011;1213;43.206;27.922;2022-11-11T09:30:25;27.50;;;15.77;;
2404;SDS011;1213;43.206;27.922;2022-11-11T09:32:50;28.13;;;15.10;;
2404;SDS011;1213;43.206;27.922;2022-11-11T09:35:16;25.03;;;15.10;;
2404;SDS011;1213;43.206;27.922;2022-11-11T09:37:41;32.07;;;16.87;;
2404;SDS011;1213;43.206;27.922;2022-11-11T09:40:08;34.13;;;17.50;;
2404;SDS011;1213;43.206;27.922;2022-11-11T09:42:41;30.67;;;15.77;;
2404;SDS011;1213;43.206;27.922;2022-11-11T09:45:22;25.50;;;15.77;;
2404;SDS011;1213;43.206;27.922;2022-11-11T09:50:16;32.10;;;16.97;;
2404;SDS011;1213;43.206;27.922;2022-11-11T09:52:46;24.83;;;14.88;;
2404;SDS011;1213;43.206;27.922;2022-11-11T09:55:19;30.27;;;18.13;;
2404;SDS011;1213;43.206;27.922;2022-11-11T10:00:14;38.27;;;15.77;;
2404;SDS011;1213;43.206;27.922;2022-11-11T10:05:12;36.97;;;16.77;;
2404;SDS011;1213;43.206;27.922;2022-11-11T10:07:49;25.93;;;15.57;;
2404;SDS011;1213;43.206;27.922;2022-11-11T10:10:23;30.00;;;15.47;;
2404;SDS011;1213;43.206;27.922;2022-11-11T10:12:55;28.03;;;15.00;;
2404;SDS011;1213;43.206;27.922;2022-11-11T10:15:21;21.73;;;14.03;;
2404;SDS011;1213;43.206;27.922;2022-11-11T10:20:29;18.70;;;13.67;;
2404;SDS011;1213;43.206;27.922;2022-11-11T10:23:15;24.97;;;13.60;;
2404;SDS011;1213;43.206;27.922;2022-11-11T10:25:51;24.10;;;13.00;;
2404;SDS011;1213;43.206;27.922;2022-11-11T10:28:18;24.83;;;13.40;;
2404;SDS011;1213;43.206;27.922;2022-11-11T10:30:44;21.80;;;13.10;;
2404;SDS011;1213;43.206;27.922;2022-11-11T10:33:16;24.83;;;13.90;;
2404;SDS011;1213;43.206;27.922;2022-11-11T10:35:43;21.57;;;12.97;;
2404;SDS011;1213;43.206;27.922;2022-11-11T10:40:53;25.33;;;13.90;;
2404;SDS011;1213;43.206;27.922;2022-11-11T10:43:23;21.20;;;13.57;;
2404;SDS011;1213;43.206;27.922;2022-11-11T10:48:21;27.90;;;14.10;;
2404;SDS011;1213;43.206;27.922;2022-11-11T10:50:49;21.90;;;13.77;;
2404;SDS011;1213;43.206;27.922;2022-11-11T10:58:19;20.47;;;13.27;;
2404;SDS011;1213;43.206;27.922;2022-11-11T11:00:46;23.10;;;14.43;;
2404;SDS011;1213;43.206;27.922;2022-11-11T11:03:56;25.60;;;13.80;;
2404;SDS011;1213;43.206;27.922;2022-11-11T11:09:14;29.67;;;15.98;;
2404;SDS011;1213;43.206;27.922;2022-11-11T11:11:43;25.27;;;15.03;;
2404;SDS011;1213;43.206;27.922;2022-11-11T11:14:12;21.90;;;14.90;;
2404;SDS011;1213;43.206;27.922;2022-11-11T11:16:42;25.27;;;15.23;;
2404;SDS011;1213;43.206;27.922;2022-11-11T11:19:18;28.33;;;16.63;;
2404;SDS011;1213;43.206;27.922;2022-11-11T11:21:51;23.73;;;14.73;;
2404;SDS011;1213;43.206;27.922;2022-11-11T11:24:21;21.50;;;12.70;;
2404;SDS011;1213;43.206;27.922;2022-11-11T11:26:48;25.80;;;15.33;;
2404;SDS011;1213;43.206;27.922;2022-11-11T11:29:22;42.37;;;17.33;;
2404;SDS011;1213;43.206;27.922;2022-11-11T11:31:48;37.00;;;15.80;;
2404;SDS011;1213;43.206;27.922;2022-11-11T11:34:13;24.33;;;13.70;;
2404;SDS011;1213;43.206;27.922;2022-11-11T11:36:39;30.33;;;16.70;;
2404;SDS011;1213;43.206;27.922;2022-11-11T11:39:04;24.57;;;14.20;;
2404;SDS011;1213;43.206;27.922;2022-11-11T11:44:00;27.57;;;16.03;;
2404;SDS011;1213;43.206;27.922;2022-11-11T11:58:56;39.80;;;18.43;;
2404;SDS011;1213;43.206;27.922;2022-11-11T12:04:04;37.07;;;16.47;;
2404;SDS011;1213;43.206;27.922;2022-11-11T12:16:52;32.28;;;18.35;;
2404;SDS011;1213;43.206;27.922;2022-11-11T12:24:45;30.17;;;17.87;;
2404;SDS011;1213;43.206;27.922;2022-11-11T12:27:22;30.20;;;16.80;;
2404;SDS011;1213;43.206;27.922;2022-11-11T12:29:57;28.33;;;16.50;;
2404;SDS011;1213;43.206;27.922;2022-11-11T12:57:32;32.10;;;15.10;;
2404;SDS011;1213;43.206;27.922;2022-11-11T13:00:34;27.60;;;15.20;;
2404;SDS011;1213;43.206;27.922;2022-11-11T13:05:30;27.10;;;15.17;;
2404;SDS011;1213;43.206;27.922;2022-11-11T13:15:38;21.90;;;12.20;;
2404;SDS011;1213;43.206;27.922;2022-11-11T13:18:09;24.10;;;12.40;;
2404;SDS011;1213;43.206;27.922;2022-11-11T13:23:17;22.63;;;12.53;;
2404;SDS011;1213;43.206;27.922;2022-11-11T13:25:44;19.80;;;10.83;;
2404;SDS011;1213;43.206;27.922;2022-11-11T13:28:18;24.40;;;10.80;;
2404;SDS011;1213;43.206;27.922;2022-11-11T13:33:45;14.43;;;9.02;;
2404;SDS011;1213;43.206;27.922;2022-11-11T13:36:12;10.70;;;5.60;;
2404;SDS011;1213;43.206;27.922;2022-11-11T13:38:47;7.63;;;6.40;;
2404;SDS011;1213;43.206;27.922;2022-11-11T13:41:25;13.30;;;7.77;;
2404;SDS011;1213;43.206;27.922;2022-11-11T13:43:51;9.93;;;5.40;;
2404;SDS011;1213;43.206;27.922;2022-11-11T13:48:52;7.53;;;5.40;;
2404;SDS011;1213;43.206;27.922;2022-11-11T13:53:43;10.50;;;5.80;;
2404;SDS011;1213;43.206;27.922;2022-11-11T13:56:10;8.10;;;5.20;;
2404;SDS011;1213;43.206;27.922;2022-11-11T13:58:37;9.50;;;5.90;;
2404;SDS011;1213;43.206;27.922;2022-11-11T14:01:05;11.57;;;6.07;;
2404;SDS011;1213;43.206;27.922;2022-11-11T14:03:35;10.10;;;6.50;;
2404;SDS011;1213;43.206;27.922;2022-11-11T14:06:27;8.17;;;4.23;;
2404;SDS011;1213;43.206;27.922;2022-11-11T14:08:52;10.67;;;6.47;;
2404;SDS011;1213;43.206;27.922;2022-11-11T14:13:50;15.60;;;6.60;;
2404;SDS011;1213;43.206;27.922;2022-11-11T14:16:59;14.37;;;7.83;;
2404;SDS011;1213;43.206;27.922;2022-11-11T14:21:54;8.27;;;6.43;;
2404;SDS011;1213;43.206;27.922;2022-11-11T14:24:42;6.20;;;5.17;;
2404;SDS011;1213;43.206;27.922;2022-11-11T14:29:36;11.27;;;7.10;;
2404;SDS011;1213;43.206;27.922;2022-11-11T14:34:51;13.63;;;5.83;;
2404;SDS011;1213;43.206;27.922;2022-11-11T14:39:50;7.73;;;5.10;;
2404;SDS011;1213;43.206;27.922;2022-11-11T14:45:00;7.27;;;5.97;;
2404;SDS011;1213;43.206;27.922;2022-11-11T14:49:56;11.20;;;6.23;;
2404;SDS011;1213;43.206;27.922;2022-11-11T14:52:42;15.63;;;8.27;;
2404;SDS011;1213;43.206;27.922;2022-11-11T14:57:40;13.40;;;7.33;;
2404;SDS011;1213;43.206;27.922;2022-11-11T15:02:35;12.20;;;6.53;;
2404;SDS011;1213;43.206;27.922;2022-11-11T15:05:02;11.70;;;6.60;;
2404;SDS011;1213;43.206;27.922;2022-11-11T15:07:35;10.27;;;6.30;;
2404;SDS011;1213;43.206;27.922;2022-11-11T15:15:01;14.70;;;7.23;;
2404;SDS011;1213;43.206;27.922;2022-11-11T15:20:35;9.67;;;6.30;;
2404;SDS011;1213;43.206;27.922;2022-11-11T15:22:52;13.03;;;7.00;;
2404;SDS011;1213;43.206;27.922;2022-11-11T15:27:53;11.93;;;7.57;;
2404;SDS011;1213;43.206;27.922;2022-11-11T15:30:20;12.53;;;6.27;;
2404;SDS011;1213;43.206;27.922;2022-11-11T15:37:58;10.73;;;7.53;;
2404;SDS011;1213;43.206;27.922;2022-11-11T15:40:25;8.53;;;6.77;;
2404;SDS011;1213;43.206;27.922;2022-11-11T15:42:51;6.60;;;5.10;;
2404;SDS011;1213;43.206;27.922;2022-11-11T15:47:42;10.17;;;6.77;;
2404;SDS011;1213;43.206;27.922;2022-11-11T15:53:02;11.70;;;6.80;;
2404;SDS011;1213;43.206;27.922;2022-11-11T15:55:28;9.63;;;6.13;;
2404;SDS011;1213;43.206;27.922;2022-11-11T15:58:06;8.17;;;5.80;;
2404;SDS011;1213;43.206;27.922;2022-11-11T16:00:32;7.73;;;6.40;;
2404;SDS011;1213;43.206;27.922;2022-11-11T16:02:57;7.57;;;5.97;;
2404;SDS011;1213;43.206;27.922;2022-11-11T16:05:23;8.27;;;6.57;;
2404;SDS011;1213;43.206;27.922;2022-11-11T16:07:49;12.20;;;6.50;;
2404;SDS011;1213;43.206;27.922;2022-11-11T16:10:29;6.53;;;5.30;;
2404;SDS011;1213;43.206;27.922;2022-11-11T16:13:01;13.23;;;6.50;;
2404;SDS011;1213;43.206;27.922;2022-11-11T16:15:35;7.43;;;5.33;;
2404;SDS011;1213;43.206;27.922;2022-11-11T16:18:02;8.00;;;4.93;;
2404;SDS011;1213;43.206;27.922;2022-11-11T16:20:31;8.20;;;6.13;;
2404;SDS011;1213;43.206;27.922;2022-11-11T16:23:01;5.60;;;5.00;;
2404;SDS011;1213;43.206;27.922;2022-11-11T16:25:29;4.70;;;4.30;;
2404;SDS011;1213;43.206;27.922;2022-11-11T16:27:54;7.73;;;4.23;;
2404;SDS011;1213;43.206;27.922;2022-11-11T16:30:33;7.70;;;5.93;;
2404;SDS011;1213;43.206;27.922;2022-11-11T16:32:59;4.73;;;3.03;;
2404;SDS011;1213;43.206;27.922;2022-11-11T16:37:51;4.13;;;3.67;;
2404;SDS011;1213;43.206;27.922;2022-11-11T16:40:27;2.47;;;2.30;;
2404;SDS011;1213;43.206;27.922;2022-11-11T16:42:53;5.23;;;3.70;;
2404;SDS011;1213;43.206;27.922;2022-11-11T16:45:30;5.43;;;4.20;;
2404;SDS011;1213;43.206;27.922;2022-11-11T16:47:55;5.30;;;2.70;;
2404;SDS011;1213;43.206;27.922;2022-11-11T16:50:21;4.53;;;3.50;;
2404;SDS011;1213;43.206;27.922;2022-11-11T16:52:51;3.60;;;2.87;;
2404;SDS011;1213;43.206;27.922;2022-11-11T16:57:45;5.77;;;3.77;;
2404;SDS011;1213;43.206;27.922;2022-11-11T17:00:12;2.50;;;2.30;;
2404;SDS011;1213;43.206;27.922;2022-11-11T17:02:38;3.10;;;2.80;;
2404;SDS011;1213;43.206;27.922;2022-11-11T17:05:04;3.50;;;2.97;;
2404;SDS011;1213;43.206;27.922;2022-11-11T17:07:30;3.63;;;3.13;;
2404;SDS011;1213;43.206;27.922;2022-11-11T17:10:13;3.10;;;2.80;;
2404;SDS011;1213;43.206;27.922;2022-11-11T17:12:38;5.70;;;2.17;;
2404;SDS011;1213;43.206;27.922;2022-11-11T17:15:08;3.30;;;2.50;;
2404;SDS011;1213;43.206;27.922;2022-11-11T17:17:33;3.10;;;2.90;;
2404;SDS011;1213;43.206;27.922;2022-11-11T17:20:00;6.93;;;3.80;;
2404;SDS011;1213;43.206;27.922;2022-11-11T17:22:26;3.50;;;3.20;;
2404;SDS011;1213;43.206;27.922;2022-11-11T17:24:51;3.77;;;2.70;;
2404;SDS011;1213;43.206;27.922;2022-11-11T17:27:16;1.93;;;1.73;;
2404;SDS011;1213;43.206;27.922;2022-11-11T17:29:42;5.20;;;2.40;;